createdAt,value
2022-10-09T00:00:36.468Z,100
2022-10-09T00:01:52.699Z,100
2022-10-09T00:03:08.942Z,100
2022-10-09T00:04:25.176Z,100
2022-10-09T00:05:41.412Z,100
2022-10-09T00:06:57.670Z,100
2022-10-09T00:08:12.908Z,100
2022-10-09T00:09:29.154Z,100
2022-10-09T00:10:45.391Z,100
2022-10-09T00:12:01.639Z,100
2022-10-09T00:13:17.879Z,100
2022-10-09T00:14:34.105Z,100
2022-10-09T00:15:50.348Z,100
2022-10-09T00:17:06.588Z,100
2022-10-09T00:18:22.826Z,100
2022-10-09T00:19:39.079Z,100
2022-10-09T00:20:55.370Z,100
2022-10-09T00:22:11.668Z,100
2022-10-09T00:23:27.952Z,100
2022-10-09T00:24:43.280Z,100
2022-10-09T00:25:59.563Z,100
2022-10-09T00:27:15.853Z,100
2022-10-09T00:28:32.146Z,100
2022-10-09T00:29:48.441Z,100
2022-10-09T00:31:04.738Z,100
2022-10-09T00:32:21.032Z,100
2022-10-09T00:33:37.342Z,100
2022-10-09T00:34:53.619Z,100
2022-10-09T00:36:09.920Z,100
2022-10-09T00:37:26.214Z,100
2022-10-09T00:38:42.500Z,100
2022-10-09T00:39:58.809Z,100
2022-10-09T00:41:14.117Z,100
2022-10-09T00:42:30.405Z,100
2022-10-09T00:43:46.698Z,100
2022-10-09T00:45:03.006Z,100
2022-10-09T00:46:19.281Z,100
2022-10-09T00:47:35.594Z,100
2022-10-09T00:48:51.874Z,100
2022-10-09T00:50:08.170Z,100
2022-10-09T00:51:24.469Z,100
2022-10-09T00:52:40.772Z,100
2022-10-09T00:53:57.068Z,100
2022-10-09T00:55:13.347Z,100
2022-10-09T00:56:29.641Z,100
2022-10-09T00:57:44.969Z,100
2022-10-09T00:59:01.247Z,100
2022-10-09T01:00:17.545Z,100
2022-10-09T01:01:33.837Z,100
2022-10-09T01:02:50.141Z,100
2022-10-09T01:04:06.427Z,100
2022-10-09T01:05:22.724Z,100
2022-10-09T01:06:39.029Z,100
2022-10-09T01:07:55.314Z,100
2022-10-09T01:09:11.604Z,100
2022-10-09T01:10:27.899Z,100
2022-10-09T01:11:44.189Z,100
2022-10-09T01:13:00.482Z,100
2022-10-09T01:14:15.800Z,100
2022-10-09T01:15:32.095Z,100
2022-10-09T01:16:48.384Z,100
2022-10-09T01:18:04.688Z,100
2022-10-09T01:19:20.988Z,100
2022-10-09T01:20:37.266Z,100
2022-10-09T01:21:53.579Z,100
2022-10-09T01:23:09.862Z,100
2022-10-09T01:24:26.160Z,100
2022-10-09T01:25:42.461Z,100
2022-10-09T01:26:58.747Z,100
2022-10-09T01:28:15.034Z,100
2022-10-09T01:29:31.343Z,100
2022-10-09T01:30:46.640Z,100
2022-10-09T01:32:02.951Z,100
2022-10-09T01:33:19.246Z,100
2022-10-09T01:34:35.529Z,100
2022-10-09T01:35:51.831Z,100
2022-10-09T01:37:08.122Z,100
2022-10-09T01:38:24.418Z,100
2022-10-09T01:39:40.706Z,100
2022-10-09T01:40:57.007Z,100
2022-10-09T01:42:13.302Z,100
2022-10-09T01:43:29.586Z,100
2022-10-09T01:44:45.884Z,100
2022-10-09T01:46:02.188Z,100
2022-10-09T01:47:17.495Z,100
2022-10-09T01:48:33.795Z,100
2022-10-09T01:49:50.083Z,100
2022-10-09T01:51:06.371Z,100
2022-10-09T01:52:22.666Z,100
2022-10-09T01:53:38.960Z,100
2022-10-09T01:54:55.263Z,100
2022-10-09T01:56:11.552Z,100
2022-10-09T01:57:27.846Z,100
2022-10-09T01:58:44.142Z,100
2022-10-09T02:00:00.444Z,100
2022-10-09T02:01:16.735Z,100
2022-10-09T02:02:33.033Z,100
2022-10-09T02:03:48.344Z,100
2022-10-09T02:05:04.633Z,100
2022-10-09T02:06:20.937Z,100
2022-10-09T02:07:37.218Z,100
2022-10-09T02:08:53.516Z,100
2022-10-09T02:10:09.813Z,100
2022-10-09T02:11:26.109Z,100
2022-10-09T02:12:42.397Z,100
2022-10-09T02:13:58.689Z,100
2022-10-09T02:15:14.993Z,100
2022-10-09T02:16:31.287Z,100
2022-10-09T02:17:47.576Z,100
2022-10-09T02:19:03.885Z,100
2022-10-09T02:20:19.182Z,100
2022-10-09T02:21:35.472Z,100
2022-10-09T02:22:51.775Z,100
2022-10-09T02:24:08.076Z,100
2022-10-09T02:25:24.359Z,100
2022-10-09T02:26:40.667Z,100
2022-10-09T02:27:56.960Z,100
2022-10-09T02:29:13.250Z,100
2022-10-09T02:30:29.537Z,100
2022-10-09T02:31:45.833Z,100
2022-10-09T02:33:02.133Z,100
2022-10-09T02:35:34.731Z,100
2022-10-09T02:36:50.037Z,100
2022-10-09T02:38:06.331Z,100
2022-10-09T02:39:22.615Z,100
2022-10-09T02:40:38.918Z,100
2022-10-09T02:41:55.211Z,100
2022-10-09T02:43:11.506Z,100
2022-10-09T02:44:27.791Z,100
2022-10-09T02:45:44.103Z,100
2022-10-09T02:47:00.389Z,100
2022-10-09T02:48:16.684Z,100
2022-10-09T02:49:32.987Z,100
2022-10-09T02:50:49.265Z,100
2022-10-09T02:52:05.561Z,100
2022-10-09T02:53:20.874Z,100
2022-10-09T02:54:37.165Z,100
2022-10-09T02:55:53.467Z,100
2022-10-09T02:57:09.755Z,100
2022-10-09T02:58:26.046Z,100
2022-10-09T02:59:42.349Z,100
2022-10-09T03:00:58.652Z,100
2022-10-09T03:02:14.935Z,100
2022-10-09T03:03:31.231Z,100
2022-10-09T03:04:47.524Z,100
2022-10-09T03:06:03.830Z,100
2022-10-09T03:07:20.106Z,100
2022-10-09T03:08:36.411Z,100
2022-10-09T03:09:51.728Z,100
2022-10-09T03:11:08.025Z,100
2022-10-09T03:12:24.310Z,100
2022-10-09T03:13:40.608Z,100
2022-10-09T03:14:56.902Z,100
2022-10-09T03:16:13.192Z,100
2022-10-09T03:17:29.495Z,100
2022-10-09T03:18:45.783Z,100
2022-10-09T03:20:02.075Z,100
2022-10-09T03:21:18.372Z,100
2022-10-09T03:22:34.661Z,100
2022-10-09T03:23:50.955Z,100
2022-10-09T03:25:07.256Z,100
2022-10-09T03:26:22.565Z,100
2022-10-09T03:27:38.857Z,100
2022-10-09T03:28:55.152Z,100
2022-10-09T03:30:11.448Z,100
2022-10-09T03:31:27.745Z,100
2022-10-09T03:32:44.038Z,100
2022-10-09T03:34:00.338Z,100
2022-10-09T03:35:16.638Z,100
2022-10-09T03:36:32.920Z,100
2022-10-09T03:37:49.219Z,100
2022-10-09T03:39:05.512Z,100
2022-10-09T03:40:21.817Z,100
2022-10-09T03:41:38.104Z,100
2022-10-09T03:42:53.412Z,100
2022-10-09T03:44:09.708Z,100
2022-10-09T03:45:25.991Z,100
2022-10-09T03:46:42.303Z,100
2022-10-09T03:47:58.585Z,100
2022-10-09T03:49:14.888Z,100
2022-10-09T03:51:47.485Z,100
2022-10-09T03:53:03.780Z,100
2022-10-09T03:54:19.083Z,100
2022-10-09T03:55:35.385Z,100
2022-10-09T03:56:51.667Z,100
2022-10-09T03:59:24.261Z,100
2022-10-09T04:00:40.564Z,100
2022-10-09T04:01:56.856Z,100
2022-10-09T04:03:13.157Z,100
2022-10-09T04:04:29.443Z,100
2022-10-09T04:05:45.732Z,100
2022-10-09T04:07:02.025Z,100
2022-10-09T04:08:18.317Z,100
2022-10-09T04:09:34.616Z,100
2022-10-09T04:12:07.202Z,100
2022-10-09T04:14:39.793Z,100
2022-10-09T04:15:55.115Z,100
2022-10-09T04:18:26.728Z,100
2022-10-09T04:19:43.011Z,100
2022-10-09T04:20:59.300Z,100
2022-10-09T04:22:15.000Z,100
2022-10-09T04:23:31.910Z,100
2022-10-09T04:24:48.200Z,100
2022-10-09T04:26:04.491Z,100
2022-10-09T04:27:20.776Z,100
2022-10-09T04:29:53.363Z,100
2022-10-09T04:31:09.000Z,100
2022-10-09T04:32:25.966Z,100
2022-10-09T04:33:42.247Z,100
2022-10-09T04:34:58.562Z,100
2022-10-09T04:37:31.152Z,100
2022-10-09T04:38:47.430Z,100
2022-10-09T04:40:02.759Z,100
2022-10-09T04:41:19.052Z,100
2022-10-09T04:42:35.341Z,100
2022-10-09T04:43:51.630Z,100
2022-10-09T04:45:07.911Z,100
2022-10-09T04:46:24.222Z,100
2022-10-09T04:47:39.525Z,100
2022-10-09T04:48:55.824Z,100
2022-10-09T04:50:12.117Z,100
2022-10-09T04:51:28.399Z,100
2022-10-09T04:52:44.705Z,100
2022-10-09T04:54:01.002Z,100
2022-10-09T04:55:16.312Z,100
2022-10-09T04:57:48.902Z,100
2022-10-09T04:59:05.194Z,100
2022-10-09T05:00:21.494Z,100
2022-10-09T05:01:37.784Z,100
2022-10-09T05:02:53.097Z,100
2022-10-09T05:04:09.394Z,100
2022-10-09T05:05:25.688Z,100
2022-10-09T05:06:41.974Z,100
2022-10-09T05:07:58.285Z,100
2022-10-09T05:09:14.562Z,100
2022-10-09T05:10:29.881Z,100
2022-10-09T05:11:46.194Z,100
2022-10-09T05:13:02.485Z,100
2022-10-09T05:14:18.774Z,100
2022-10-09T05:15:35.070Z,100
2022-10-09T05:16:51.361Z,100
2022-10-09T05:18:06.665Z,100
2022-10-09T05:19:22.962Z,100
2022-10-09T05:20:39.272Z,100
2022-10-09T05:21:55.559Z,100
2022-10-09T05:23:11.841Z,100
2022-10-09T05:24:28.139Z,100
2022-10-09T05:25:44.438Z,100
2022-10-09T05:27:00.744Z,100
2022-10-09T05:28:17.027Z,100
2022-10-09T05:29:33.330Z,100
2022-10-09T05:30:49.614Z,100
2022-10-09T05:32:05.920Z,100
2022-10-09T05:33:22.214Z,100
2022-10-09T05:34:38.499Z,100
2022-10-09T05:35:54.795Z,100
2022-10-09T05:38:27.396Z,100
2022-10-09T05:39:43.683Z,100
2022-10-09T05:40:59.009Z,100
2022-10-09T05:42:15.302Z,100
2022-10-09T05:43:31.583Z,100
2022-10-09T05:46:04.183Z,100
2022-10-09T05:47:20.477Z,100
2022-10-09T05:48:35.795Z,100
2022-10-09T05:49:52.074Z,100
2022-10-09T05:52:24.670Z,100
2022-10-09T05:53:40.973Z,100
2022-10-09T05:54:57.261Z,100
2022-10-09T05:56:13.563Z,100
2022-10-09T05:57:29.849Z,100
2022-10-09T05:58:46.138Z,100
2022-10-09T06:00:02.445Z,100
2022-10-09T06:01:18.740Z,100
2022-10-09T06:02:35.028Z,100
2022-10-09T06:03:50.340Z,100
2022-10-09T06:05:06.629Z,100
2022-10-09T06:06:22.927Z,100
2022-10-09T06:08:55.521Z,100
2022-10-09T06:10:11.822Z,100
2022-10-09T06:11:28.108Z,100
2022-10-09T06:12:43.424Z,100
2022-10-09T06:13:59.708Z,100
2022-10-09T06:15:16.012Z,100
2022-10-09T06:16:32.298Z,100
2022-10-09T06:17:47.623Z,100
2022-10-09T06:19:02.929Z,100
2022-10-09T06:20:19.236Z,100
2022-10-09T06:21:35.531Z,100
2022-10-09T06:22:51.812Z,100
2022-10-09T06:25:24.410Z,100
2022-10-09T06:26:40.705Z,100
2022-10-09T06:27:57.007Z,100
2022-10-09T06:29:13.291Z,100
2022-10-09T06:30:29.589Z,100
2022-10-09T06:31:45.880Z,100
2022-10-09T06:33:02.183Z,100
2022-10-09T06:34:18.464Z,100
2022-10-09T06:35:34.758Z,100
2022-10-09T06:36:50.069Z,100
2022-10-09T06:38:06.370Z,100
2022-10-09T06:39:22.662Z,100
2022-10-09T06:40:38.964Z,100
2022-10-09T06:41:55.254Z,100
2022-10-09T06:43:10.574Z,100
2022-10-09T06:44:26.859Z,100
2022-10-09T06:45:42.182Z,100
2022-10-09T06:46:57.493Z,100
2022-10-09T06:48:13.778Z,100
2022-10-09T06:49:30.081Z,100
2022-10-09T06:50:46.000Z,100
2022-10-09T06:52:02.669Z,100
2022-10-09T06:53:18.969Z,100
2022-10-09T06:54:35.248Z,100
2022-10-09T06:55:51.552Z,100
2022-10-09T06:57:07.841Z,100
2022-10-09T06:58:23.169Z,100
2022-10-09T06:59:39.461Z,100
2022-10-09T07:00:55.000Z,100
2022-10-09T07:02:11.071Z,100
2022-10-09T07:03:27.350Z,100
2022-10-09T07:04:43.658Z,100
2022-10-09T07:05:59.938Z,100
2022-10-09T07:07:16.236Z,100
2022-10-09T07:08:32.531Z,100
2022-10-09T07:09:48.832Z,100
2022-10-09T07:11:05.131Z,100
2022-10-09T07:12:20.437Z,100
2022-10-09T07:13:35.759Z,100
2022-10-09T07:14:52.051Z,100
2022-10-09T07:16:08.347Z,100
2022-10-09T07:17:24.634Z,100
2022-10-09T07:18:40.923Z,100
2022-10-09T07:19:57.225Z,100
2022-10-09T07:21:13.522Z,100
2022-10-09T07:22:29.819Z,100
2022-10-09T07:23:46.110Z,100
2022-10-09T07:25:02.407Z,100
2022-10-09T07:26:18.696Z,100
2022-10-09T07:27:34.995Z,100
2022-10-09T07:28:51.296Z,100
2022-10-09T07:30:06.596Z,100
2022-10-09T07:31:22.886Z,100
2022-10-09T07:32:39.180Z,100
2022-10-09T07:33:55.480Z,100
2022-10-09T07:35:11.779Z,100
2022-10-09T07:36:28.077Z,100
2022-10-09T07:37:44.358Z,100
2022-10-09T07:38:59.679Z,100
2022-10-09T07:40:14.995Z,100
2022-10-09T07:41:30.242Z,100
2022-10-09T07:42:45.505Z,100
2022-10-09T07:44:01.757Z,100
2022-10-09T07:45:17.992Z,100
2022-10-09T07:46:34.221Z,100
2022-10-09T07:47:50.461Z,98.8
2022-10-09T07:49:06.709Z,98.7
2022-10-09T07:50:22.939Z,98.4
2022-10-09T07:51:39.185Z,98.4
2022-10-09T07:52:55.418Z,98.1
2022-10-09T07:54:11.658Z,97.8
2022-10-09T07:55:27.904Z,97.1
2022-10-09T07:56:44.147Z,97.2
2022-10-09T07:58:00.391Z,96.3
2022-10-09T07:59:15.647Z,97.2
2022-10-09T08:00:31.870Z,97.2
2022-10-09T08:01:48.116Z,97.4
2022-10-09T08:03:04.354Z,97.9
2022-10-09T08:04:20.601Z,97.9
2022-10-09T08:05:36.830Z,96.4
2022-10-09T08:06:53.086Z,93
2022-10-09T08:08:08.342Z,90.4
2022-10-09T08:09:23.601Z,87
2022-10-09T08:10:38.864Z,82.8
2022-10-09T08:11:54.124Z,81.3
2022-10-09T08:13:10.349Z,79.9
2022-10-09T08:14:26.588Z,79.7
2022-10-09T08:15:42.828Z,78.5
2022-10-09T08:16:59.083Z,78.4
2022-10-09T08:18:15.313Z,75.9
2022-10-09T08:19:31.556Z,74.8
2022-10-09T08:20:47.789Z,75.8
2022-10-09T08:22:04.029Z,73.9
2022-10-09T08:23:20.268Z,73
2022-10-09T08:24:36.505Z,74.1
2022-10-09T08:25:52.762Z,74
2022-10-09T08:27:08.985Z,72.4
2022-10-09T08:28:24.244Z,72.7
2022-10-09T08:29:40.482Z,73.6
2022-10-09T08:30:56.718Z,70.8
2022-10-09T08:32:12.965Z,70.3
2022-10-09T08:33:29.202Z,71.5
2022-10-09T08:34:45.445Z,69.9
2022-10-09T08:36:01.677Z,69.2
2022-10-09T08:37:16.949Z,68.9
2022-10-09T08:38:32.198Z,68.3
2022-10-09T08:39:47.459Z,66.3
2022-10-09T08:41:02.708Z,69.7
2022-10-09T08:42:18.956Z,68.4
2022-10-09T08:43:35.194Z,67.2
2022-10-09T08:44:51.430Z,66.1
2022-10-09T08:46:07.683Z,65.2
2022-10-09T08:47:23.912Z,66.9
2022-10-09T08:48:40.150Z,65.6
2022-10-09T08:49:56.392Z,67.3
2022-10-09T08:51:12.638Z,66.7
2022-10-09T08:52:28.876Z,63.9
2022-10-09T08:53:45.104Z,63.1
2022-10-09T08:55:01.356Z,64.2
2022-10-09T08:56:17.590Z,62.1
2022-10-09T08:57:32.849Z,60.6
2022-10-09T08:58:49.083Z,60.8
2022-10-09T09:00:05.315Z,59.5
2022-10-09T09:01:21.565Z,60.2
2022-10-09T09:02:37.796Z,62.1
2022-10-09T09:03:54.051Z,60.9
2022-10-09T09:05:10.274Z,59.2
2022-10-09T09:06:25.543Z,58
2022-10-09T09:07:40.795Z,57.7
2022-10-09T09:08:57.038Z,56.3
2022-10-09T09:10:13.268Z,55.8
2022-10-09T09:11:29.509Z,56.6
2022-10-09T09:12:45.752Z,56
2022-10-09T09:14:01.992Z,56.5
2022-10-09T09:15:18.232Z,55.3
2022-10-09T09:16:34.463Z,55.4
2022-10-09T09:17:50.719Z,52.9
2022-10-09T09:19:06.955Z,53.6
2022-10-09T09:20:23.185Z,53.2
2022-10-09T09:21:39.425Z,51.6
2022-10-09T09:22:55.678Z,52.8
2022-10-09T09:24:10.919Z,51.7
2022-10-09T09:25:27.153Z,51.6
2022-10-09T09:26:43.400Z,53.2
2022-10-09T09:27:59.640Z,52.2
2022-10-09T09:29:15.880Z,53.8
2022-10-09T09:30:32.121Z,54.6
2022-10-09T09:31:48.360Z,52.2
2022-10-09T09:33:03.630Z,52.9
2022-10-09T09:34:18.874Z,52.4
2022-10-09T09:35:34.138Z,52
2022-10-09T09:36:49.381Z,51.7
2022-10-09T09:38:05.628Z,52
2022-10-09T09:39:20.896Z,51.8
2022-10-09T09:40:36.144Z,52.6
2022-10-09T09:41:51.408Z,55
2022-10-09T09:43:06.673Z,54.7
2022-10-09T09:44:21.929Z,53.5
2022-10-09T09:45:37.186Z,53
2022-10-09T09:46:53.411Z,54
2022-10-09T09:48:09.653Z,54.1
2022-10-09T09:49:25.899Z,53.9
2022-10-09T09:50:42.131Z,52.9
2022-10-09T09:51:58.365Z,52.6
2022-10-09T09:53:14.622Z,52.5
2022-10-09T09:54:30.848Z,50.5
2022-10-09T09:55:47.087Z,49.7
2022-10-09T09:57:03.321Z,52.4
2022-10-09T09:58:19.575Z,52.2
2022-10-09T09:59:35.804Z,52.6
2022-10-09T10:00:52.044Z,50.3
2022-10-09T10:02:07.298Z,48.7
2022-10-09T10:03:23.539Z,47.8
2022-10-09T10:04:39.776Z,49.4
2022-10-09T10:05:56.013Z,49.3
2022-10-09T10:07:12.258Z,49.8
2022-10-09T10:08:28.497Z,49.9
2022-10-09T10:09:44.726Z,52
2022-10-09T10:10:59.998Z,51.4
2022-10-09T10:12:15.255Z,51.5
2022-10-09T10:13:31.490Z,51.3
2022-10-09T10:14:47.726Z,51.4
2022-10-09T10:16:03.972Z,52.7
2022-10-09T10:17:20.202Z,52.9
2022-10-09T10:18:36.448Z,56.1
2022-10-09T10:19:52.680Z,56.4
2022-10-09T10:21:08.920Z,55.7
2022-10-09T10:22:25.161Z,56.2
2022-10-09T10:23:41.406Z,57.1
2022-10-09T10:24:57.000Z,59.3
2022-10-09T10:26:13.886Z,61.1
2022-10-09T10:27:30.133Z,61.9
2022-10-09T10:28:45.380Z,63.1
2022-10-09T10:30:01.614Z,61
2022-10-09T10:31:17.869Z,60.3
2022-10-09T10:32:34.096Z,59.1
2022-10-09T10:33:50.343Z,59.6
2022-10-09T10:35:06.586Z,60.2
2022-10-09T10:36:22.813Z,60.3
2022-10-09T10:37:38.072Z,57.4
2022-10-09T10:38:53.327Z,56.3
2022-10-09T10:40:08.588Z,55.2
2022-10-09T10:41:23.853Z,53.8
2022-10-09T10:42:39.107Z,53.2
2022-10-09T10:43:54.366Z,52.4
2022-10-09T10:45:10.599Z,53
2022-10-09T10:46:25.861Z,51.4
2022-10-09T10:47:41.111Z,50.3
2022-10-09T10:48:57.359Z,49.1
2022-10-09T10:50:13.601Z,47.3
2022-10-09T10:51:29.842Z,47.6
2022-10-09T10:52:46.076Z,46.9
2022-10-09T10:55:18.559Z,47.7
2022-10-09T10:56:34.793Z,47.5
2022-10-09T10:57:51.024Z,46.8
2022-10-09T10:59:07.266Z,46.5
2022-10-09T11:00:23.502Z,45.4
2022-10-09T11:01:39.759Z,44.8
2022-10-09T11:02:55.989Z,45.5
2022-10-09T11:04:11.244Z,44.5
2022-10-09T11:05:27.477Z,44.5
2022-10-09T11:06:43.717Z,44.7
2022-10-09T11:07:59.951Z,43.1
2022-10-09T11:09:16.210Z,43.8
2022-10-09T11:10:32.433Z,43
2022-10-09T11:11:48.691Z,42.9
2022-10-09T11:13:04.913Z,41.8
2022-10-09T11:14:20.174Z,42.1
2022-10-09T11:15:35.434Z,41.3
2022-10-09T11:16:50.691Z,41
2022-10-09T11:18:05.948Z,39.9
2022-10-09T11:19:22.201Z,39.7
2022-10-09T11:20:38.429Z,40.5
2022-10-09T11:21:54.662Z,41
2022-10-09T11:23:10.902Z,41
2022-10-09T11:24:27.153Z,41.9
2022-10-09T11:25:43.378Z,42.7
2022-10-09T11:26:59.626Z,41.4
2022-10-09T11:28:15.867Z,41.7
2022-10-09T11:29:32.109Z,41.8
2022-10-09T11:30:48.336Z,40.9
2022-10-09T11:32:04.585Z,40.5
2022-10-09T11:33:20.815Z,41.6
2022-10-09T11:34:36.074Z,39.4
2022-10-09T11:35:52.313Z,38.8
2022-10-09T11:37:08.542Z,38.8
2022-10-09T11:38:24.785Z,39.2
2022-10-09T11:39:41.030Z,40.3
2022-10-09T11:40:57.273Z,40.3
2022-10-09T11:42:13.516Z,39.2
2022-10-09T11:43:28.763Z,43.3
2022-10-09T11:44:44.033Z,41.3
2022-10-09T11:45:59.286Z,42.1
2022-10-09T11:47:14.542Z,44.5
2022-10-09T11:48:30.771Z,45.4
2022-10-09T11:49:47.015Z,46.1
2022-10-09T11:51:03.272Z,45.9
2022-10-09T11:52:19.509Z,47.8
2022-10-09T11:53:35.737Z,50.6
2022-10-09T11:54:51.972Z,50
2022-10-09T11:56:08.206Z,53.1
2022-10-09T11:57:24.450Z,52.4
2022-10-09T11:58:40.685Z,53.4
2022-10-09T11:59:56.939Z,53.4
2022-10-09T12:01:13.165Z,54.6
2022-10-09T12:02:29.414Z,54.2
2022-10-09T12:03:44.656Z,55.6
2022-10-09T12:05:00.910Z,53.7
2022-10-09T12:06:17.139Z,54.6
2022-10-09T12:07:33.373Z,55.6
2022-10-09T12:08:49.619Z,54.1
2022-10-09T12:10:05.865Z,53.8
2022-10-09T12:11:22.099Z,54.3
2022-10-09T12:12:37.368Z,55.6
2022-10-09T12:13:52.611Z,54.7
2022-10-09T12:15:08.861Z,55.1
2022-10-09T12:16:25.083Z,56.5
2022-10-09T12:17:41.333Z,56.2
2022-10-09T12:18:57.584Z,57.3
2022-10-09T12:20:13.816Z,56.6
2022-10-09T12:21:30.040Z,57.1
2022-10-09T12:22:46.289Z,56.8
2022-10-09T12:24:01.545Z,57
2022-10-09T12:25:17.796Z,57.1
2022-10-09T12:26:34.026Z,56.7
2022-10-09T12:27:50.273Z,57.9
2022-10-09T12:29:06.502Z,57.8
2022-10-09T12:30:22.748Z,57.3
2022-10-09T12:31:38.984Z,57.3
2022-10-09T12:32:55.231Z,58.9
2022-10-09T12:34:11.461Z,58.1
2022-10-09T12:35:27.719Z,57.6
2022-10-09T12:36:43.954Z,59.3
2022-10-09T12:38:00.186Z,57.1
2022-10-09T12:39:15.445Z,56.2
2022-10-09T12:40:30.708Z,55.5
2022-10-09T12:41:46.934Z,55.8
2022-10-09T12:43:03.187Z,55.8
2022-10-09T12:44:19.422Z,54.4
2022-10-09T12:45:35.659Z,54.4
2022-10-09T12:46:51.888Z,55.3
2022-10-09T12:48:08.149Z,54.9
2022-10-09T12:49:24.376Z,52.7
2022-10-09T12:50:40.614Z,52.6
2022-10-09T12:51:56.849Z,52.8
2022-10-09T12:53:13.087Z,52.8
2022-10-09T12:54:29.322Z,52.3
2022-10-09T12:55:45.564Z,51.8
2022-10-09T12:57:00.828Z,53.2
2022-10-09T12:58:17.059Z,53.9
2022-10-09T12:59:33.308Z,53.9
2022-10-09T13:00:49.550Z,54.1
2022-10-09T13:02:05.779Z,53.7
2022-10-09T13:03:22.009Z,53.7
2022-10-09T13:04:38.265Z,52.9
2022-10-09T13:05:54.498Z,51
2022-10-09T13:07:10.739Z,50.3
2022-10-09T13:08:26.966Z,51.4
2022-10-09T13:09:43.205Z,53
2022-10-09T13:10:59.463Z,52
2022-10-09T13:12:15.685Z,52.7
2022-10-09T13:13:30.951Z,51.7
2022-10-09T13:14:47.178Z,51.8
2022-10-09T13:16:03.415Z,50.6
2022-10-09T13:17:19.671Z,48.2
2022-10-09T13:18:35.914Z,46.9
2022-10-09T13:19:52.139Z,47.3
2022-10-09T13:21:08.379Z,44.9
2022-10-09T13:22:24.613Z,44.8
2022-10-09T13:23:40.852Z,44
2022-10-09T13:24:57.097Z,44.7
2022-10-09T13:26:13.331Z,45.8
2022-10-09T13:27:29.587Z,45.4
2022-10-09T13:28:45.833Z,46.8
2022-10-09T13:30:01.069Z,48.1
2022-10-09T13:31:17.309Z,48
2022-10-09T13:32:33.564Z,49
2022-10-09T13:33:49.799Z,50.9
2022-10-09T13:35:06.033Z,50.6
2022-10-09T13:36:22.272Z,49.5
2022-10-09T13:37:38.507Z,49.4
2022-10-09T13:38:54.757Z,49.9
2022-10-09T13:40:10.984Z,50.6
2022-10-09T13:41:27.221Z,49.1
2022-10-09T13:42:43.464Z,48.6
2022-10-09T13:43:59.710Z,48.8
2022-10-09T13:45:15.943Z,48.9
2022-10-09T13:46:31.215Z,49.6
2022-10-09T13:47:47.438Z,51.2
2022-10-09T13:49:03.672Z,52.2
2022-10-09T13:50:19.920Z,51
2022-10-09T13:51:36.155Z,51.3
2022-10-09T13:52:52.402Z,51.4
2022-10-09T13:54:08.634Z,51.5
2022-10-09T13:55:24.865Z,51.7
2022-10-09T13:56:41.119Z,50.9
2022-10-09T13:57:57.358Z,51.1
2022-10-09T13:59:13.601Z,51.1
2022-10-09T14:00:29.837Z,50.4
2022-10-09T14:01:46.077Z,50.5
2022-10-09T14:03:01.336Z,50.5
2022-10-09T14:04:17.572Z,51.7
2022-10-09T14:05:33.813Z,51.8
2022-10-09T14:06:50.039Z,49.7
2022-10-09T14:08:06.291Z,50.8
2022-10-09T14:09:22.525Z,51.4
2022-10-09T14:10:38.761Z,52.4
2022-10-09T14:11:55.002Z,52.5
2022-10-09T14:13:11.238Z,51.2
2022-10-09T14:14:27.477Z,51.2
2022-10-09T14:15:43.733Z,51.3
2022-10-09T14:16:59.951Z,53.3
2022-10-09T14:18:16.197Z,53
2022-10-09T14:19:31.465Z,54.8
2022-10-09T14:20:47.690Z,55.1
2022-10-09T14:22:03.941Z,55.7
2022-10-09T14:23:20.000Z,55.6
2022-10-09T14:24:36.426Z,55.9
2022-10-09T14:25:52.647Z,56
2022-10-09T14:27:08.891Z,56.8
2022-10-09T14:28:25.139Z,57.2
2022-10-09T14:29:41.384Z,59.9
2022-10-09T14:30:57.601Z,59.7
2022-10-09T14:32:13.852Z,58.6
2022-10-09T14:33:30.088Z,56.6
2022-10-09T14:34:46.327Z,57.3
2022-10-09T14:36:01.580Z,57.9
2022-10-09T14:37:17.832Z,58.8
2022-10-09T14:38:34.069Z,58.3
2022-10-09T14:39:50.307Z,58.1
2022-10-09T14:41:06.534Z,59.5
2022-10-09T14:42:22.781Z,60.1
2022-10-09T14:43:39.023Z,60.9
2022-10-09T14:44:55.263Z,60.7
2022-10-09T14:46:11.495Z,58.8
2022-10-09T14:47:27.741Z,58.1
2022-10-09T14:48:43.982Z,57.3
2022-10-09T14:50:00.211Z,59
2022-10-09T14:51:16.450Z,58.7
2022-10-09T14:52:31.709Z,59.3
2022-10-09T14:53:47.962Z,60
2022-10-09T14:55:04.198Z,59.6
2022-10-09T14:56:20.439Z,59.7
2022-10-09T14:57:36.666Z,59.8
2022-10-09T14:58:52.898Z,59.8
2022-10-09T15:00:09.143Z,59.7
2022-10-09T15:01:25.383Z,60.8
2022-10-09T15:02:41.637Z,60.1
2022-10-09T15:03:57.864Z,61
2022-10-09T15:05:14.119Z,61.3
2022-10-09T15:06:30.356Z,61.1
2022-10-09T15:07:46.592Z,60.3
2022-10-09T15:09:01.836Z,60.9
2022-10-09T15:10:18.070Z,61.8
2022-10-09T15:11:34.315Z,60.9
2022-10-09T15:12:50.569Z,61.1
2022-10-09T15:14:06.791Z,61
2022-10-09T15:15:23.044Z,62.9
2022-10-09T15:16:39.276Z,62.4
2022-10-09T15:17:55.515Z,63.1
2022-10-09T15:19:11.754Z,63.7
2022-10-09T15:20:28.000Z,62.5
2022-10-09T15:21:44.229Z,63.2
2022-10-09T15:23:00.482Z,63.3
2022-10-09T15:24:16.703Z,62.9
2022-10-09T15:25:31.960Z,63.1
2022-10-09T15:26:48.193Z,64.8
2022-10-09T15:28:04.440Z,63.3
2022-10-09T15:29:20.678Z,64.7
2022-10-09T15:30:36.926Z,64
2022-10-09T15:31:53.150Z,64.8
2022-10-09T15:33:09.397Z,65.7
2022-10-09T15:34:25.649Z,65.5
2022-10-09T15:35:41.877Z,65.5
2022-10-09T15:36:58.110Z,66.1
2022-10-09T15:38:14.357Z,66.5
2022-10-09T15:39:30.595Z,66.1
2022-10-09T15:40:46.830Z,66.1
2022-10-09T15:42:02.087Z,65
2022-10-09T15:43:18.338Z,66.5
2022-10-09T15:44:34.574Z,66.8
2022-10-09T15:45:50.815Z,67.5
2022-10-09T15:47:07.048Z,69
2022-10-09T15:48:23.289Z,69.5
2022-10-09T15:49:39.523Z,67.8
2022-10-09T15:52:11.999Z,68.5
2022-10-09T15:53:28.250Z,69
2022-10-09T15:54:44.484Z,69
2022-10-09T15:56:00.735Z,70.6
2022-10-09T15:57:16.971Z,70.7
2022-10-09T15:58:32.225Z,70.8
2022-10-09T15:59:48.453Z,71
2022-10-09T16:01:04.702Z,71.1
2022-10-09T16:02:20.930Z,71.7
2022-10-09T16:03:37.167Z,71.3
2022-10-09T16:04:53.409Z,70.6
2022-10-09T16:06:09.655Z,70.1
2022-10-09T16:07:25.891Z,70.5
2022-10-09T16:08:42.138Z,71
2022-10-09T16:09:58.376Z,72.9
2022-10-09T16:11:14.604Z,71.2
2022-10-09T16:12:30.844Z,73.1
2022-10-09T16:13:47.087Z,71.6
2022-10-09T16:15:02.340Z,72.5
2022-10-09T16:16:18.579Z,72.7
2022-10-09T16:17:34.821Z,73
2022-10-09T16:18:51.064Z,71.9
2022-10-09T16:20:07.311Z,72.8
2022-10-09T16:21:23.554Z,72.3
2022-10-09T16:22:39.785Z,73.2
2022-10-09T16:23:56.029Z,74
2022-10-09T16:25:12.260Z,73.7
2022-10-09T16:26:28.507Z,73.8
2022-10-09T16:27:44.736Z,74.5
2022-10-09T16:29:00.972Z,74
2022-10-09T16:30:17.220Z,74.5
2022-10-09T16:31:32.480Z,74.1
2022-10-09T16:32:48.704Z,75.3
2022-10-09T16:34:04.944Z,74.9
2022-10-09T16:35:21.184Z,74.3
2022-10-09T16:36:37.424Z,75.1
2022-10-09T16:37:53.673Z,74.7
2022-10-09T16:39:08.946Z,74.9
2022-10-09T16:40:25.176Z,75.6
2022-10-09T16:41:41.402Z,75.4
2022-10-09T16:42:57.651Z,74.8
2022-10-09T16:44:13.884Z,75.1
2022-10-09T16:45:30.127Z,76.2
2022-10-09T16:46:46.366Z,76.9
2022-10-09T16:48:02.607Z,76.8
2022-10-09T16:49:18.838Z,75.6
2022-10-09T16:50:35.087Z,76.7
2022-10-09T16:51:51.319Z,76.3
2022-10-09T16:53:07.575Z,76.9
2022-10-09T16:54:23.795Z,76.4
2022-10-09T16:55:39.055Z,76.4
2022-10-09T16:56:55.298Z,76.5
2022-10-09T16:58:11.545Z,77.1
2022-10-09T16:59:27.788Z,76.9
2022-10-09T17:00:44.016Z,76.3
2022-10-09T17:02:00.256Z,76.6
2022-10-09T17:03:16.497Z,76.2
2022-10-09T17:04:32.735Z,77.3
2022-10-09T17:05:48.965Z,76.8
2022-10-09T17:07:05.215Z,77.7
2022-10-09T17:08:21.444Z,78.1
2022-10-09T17:09:37.689Z,78.4
2022-10-09T17:10:53.931Z,76.9
2022-10-09T17:12:09.189Z,78.1
2022-10-09T17:13:25.421Z,77.5
2022-10-09T17:14:41.665Z,76.9
2022-10-09T17:15:57.903Z,76.8
2022-10-09T17:17:14.152Z,78.1
2022-10-09T17:18:30.378Z,77.2
2022-10-09T17:19:46.629Z,78.3
2022-10-09T17:21:02.861Z,78.2
2022-10-09T17:22:19.095Z,78.8
2022-10-09T17:23:35.345Z,78.4
2022-10-09T17:24:51.579Z,78
2022-10-09T17:26:07.827Z,79.1
2022-10-09T17:27:24.059Z,78.5
2022-10-09T17:28:39.319Z,78
2022-10-09T17:29:55.567Z,78.7
2022-10-09T17:31:11.794Z,77.6
2022-10-09T17:32:28.048Z,79.2